Time;durP1;ratioP1;P1;durP2;ratioP2;P2;SDS_P1;SDS_P2;PMS_P1;PMS_P2;Temp;Humidity;BMP_temperature;BMP_pressure;BME280_temperature;BME280_humidity;BME280_pressure;Samples;Min_cycle;Max_cycle;Signal;HPM_P1;HPM_P2
2023/10/19 00:00:40;;;;;;;5.20;4.70;;;11.20;87.30;;;;;;5055551;28;20047;-35
2023/10/19 00:03:06;;;;;;;6.10;4.72;;;11.30;87.50;;;;;;5055928;28;20024;-35
2023/10/19 00:05:35;;;;;;;5.43;4.47;;;11.30;87.50;;;;;;5055411;28;20025;-35
2023/10/19 00:08:14;;;;;;;6.03;5.32;;;11.40;87.60;;;;;;5055433;28;20036;-35
2023/10/19 00:10:42;;;;;;;5.55;4.90;;;11.30;87.50;;;;;;5055630;28;20497;-35
2023/10/19 00:13:11;;;;;;;6.25;5.00;;;11.40;87.50;;;;;;5055624;28;20048;-36
2023/10/19 00:15:40;;;;;;;6.35;5.20;;;11.40;87.60;;;;;;5055391;28;20029;-35
2023/10/19 00:18:42;;;;;;;5.82;5.22;;;11.40;87.70;;;;;;5053865;28;20021;-32
2023/10/19 00:21:19;;;;;;;5.63;5.07;;;11.50;87.70;;;;;;5055041;28;20032;-36
2023/10/19 00:23:47;;;;;;;7.40;5.65;;;11.50;87.70;;;;;;5055373;28;20264;-36
2023/10/19 00:26:19;;;;;;;6.32;5.50;;;11.50;87.70;;;;;;5055116;28;20021;-35
2023/10/19 00:28:49;;;;;;;7.72;5.53;;;11.60;87.80;;;;;;5054835;28;20049;-35
2023/10/19 00:31:15;;;;;;;6.78;5.65;;;11.60;87.80;;;;;;5055220;28;20053;-35
2023/10/19 00:33:40;;;;;;;7.75;5.93;;;11.60;87.90;;;;;;5055207;28;20049;-36
2023/10/19 00:36:08;;;;;;;7.32;6.25;;;11.60;87.90;;;;;;5054838;28;20047;-35
2023/10/19 00:43:42;;;;;;;6.80;5.88;;;11.70;88.20;;;;;;5054872;28;20112;-34
2023/10/19 00:49:00;;;;;;;8.07;6.35;;;11.80;88.30;;;;;;5054666;28;20073;-35
2023/10/19 00:54:08;;;;;;;8.25;6.78;;;11.80;88.40;;;;;;5055061;28;20036;-36
2023/10/19 00:56:34;;;;;;;7.22;6.25;;;11.80;88.40;;;;;;5054354;28;20036;-35
2023/10/19 00:59:14;;;;;;;8.02;5.80;;;11.90;88.40;;;;;;5054608;28;20395;-36
2023/10/19 01:01:44;;;;;;;6.82;6.13;;;11.90;88.50;;;;;;5054615;28;20017;-36
2023/10/19 01:04:33;;;;;;;8.10;6.70;;;11.90;88.50;;;;;;5054548;28;20025;-36
2023/10/19 01:09:28;;;;;;;8.88;7.18;;;11.90;88.60;;;;;;5054659;28;20033;-36
2023/10/19 01:11:54;;;;;;;9.02;7.18;;;12.00;88.70;;;;;;5054375;28;20029;-36
2023/10/19 01:14:21;;;;;;;7.40;6.25;;;12.00;88.80;;;;;;5052906;28;20032;-35
2023/10/19 01:16:49;;;;;;;7.85;6.63;;;12.00;88.80;;;;;;5054284;28;20056;-35
2023/10/19 01:19:18;;;;;;;8.55;7.07;;;12.00;88.80;;;;;;5054322;28;20017;-36
2023/10/19 01:21:52;;;;;;;8.23;6.60;;;12.00;88.90;;;;;;5054469;28;20354;-34
2023/10/19 01:24:29;;;;;;;7.85;6.72;;;12.00;88.90;;;;;;5054035;28;20021;-36
2023/10/19 01:26:56;;;;;;;8.88;6.97;;;12.10;89.00;;;;;;5054131;28;20036;-35
2023/10/19 01:29:26;;;;;;;9.10;7.20;;;12.10;89.00;;;;;;5053842;28;20732;-36
2023/10/19 01:31:56;;;;;;;8.70;7.53;;;12.10;89.00;;;;;;5053844;28;20147;-35
2023/10/19 01:34:22;;;;;;;8.32;7.30;;;12.10;89.10;;;;;;5054193;28;20032;-36
2023/10/19 01:36:50;;;;;;;10.27;7.57;;;12.10;89.20;;;;;;5053579;28;20081;-35
2023/10/19 01:39:18;;;;;;;8.60;7.70;;;12.10;89.30;;;;;;5053795;28;20075;-35
2023/10/19 01:41:45;;;;;;;9.93;7.82;;;12.10;89.30;;;;;;5053716;28;20028;-35
2023/10/19 01:44:13;;;;;;;10.02;8.10;;;12.20;89.40;;;;;;5053975;28;20042;-36
2023/10/19 01:46:39;;;;;;;8.93;7.35;;;12.20;89.40;;;;;;5053746;28;20079;-36
2023/10/19 01:49:08;;;;;;;9.32;7.53;;;12.20;89.40;;;;;;5053159;28;20356;-35
2023/10/19 01:51:44;;;;;;;8.48;7.00;;;12.20;89.50;;;;;;5053883;28;20025;-36
2023/10/19 01:54:10;;;;;;;8.50;6.85;;;12.20;89.50;;;;;;5053762;28;20499;-35
2023/10/19 01:56:38;;;;;;;8.70;7.63;;;12.20;89.50;;;;;;5053172;28;20093;-36
2023/10/19 01:59:04;;;;;;;9.95;7.47;;;12.30;89.60;;;;;;5053620;28;20446;-34
2023/10/19 02:01:31;;;;;;;8.73;7.75;;;12.30;89.60;;;;;;5053497;28;20024;-36
2023/10/19 02:04:05;;;;;;;9.43;7.45;;;12.30;89.70;;;;;;5053603;28;20025;-35
2023/10/19 02:06:40;;;;;;;11.25;7.95;;;12.30;89.70;;;;;;5053327;28;20017;-35
2023/10/19 02:09:28;;;;;;;8.45;6.93;;;12.30;89.70;;;;;;5053473;28;20021;-36
2023/10/19 02:11:57;;;;;;;9.13;7.32;;;12.40;89.80;;;;;;5053340;28;20479;-35
2023/10/19 02:14:25;;;;;;;8.68;7.38;;;12.40;89.80;;;;;;5053123;28;20025;-35
2023/10/19 02:16:59;;;;;;;9.40;7.22;;;12.40;89.80;;;;;;5053143;28;20516;-36
2023/10/19 02:19:26;;;;;;;9.70;7.07;;;12.40;89.80;;;;;;5053099;28;20031;-35
2023/10/19 02:22:03;;;;;;;8.55;6.82;;;12.40;89.90;;;;;;5053154;28;20648;-35
2023/10/19 02:24:29;;;;;;;8.30;7.28;;;12.50;90.00;;;;;;5053183;28;20044;-36
2023/10/19 02:26:57;;;;;;;7.68;6.85;;;12.50;90.00;;;;;;5052823;28;20028;-36
2023/10/19 02:29:23;;;;;;;9.00;6.60;;;12.50;90.00;;;;;;5052600;28;20124;-35
2023/10/19 02:31:49;;;;;;;8.70;6.85;;;12.60;90.00;;;;;;5053024;28;20477;-35
2023/10/19 02:34:15;;;;;;;7.70;6.68;;;12.60;90.00;;;;;;5052709;28;20024;-33
2023/10/19 02:36:43;;;;;;;7.82;6.90;;;12.60;90.00;;;;;;5052540;28;20025;-36
2023/10/19 02:39:10;;;;;;;9.02;6.95;;;12.60;90.00;;;;;;5052585;28;20067;-36
2023/10/19 02:41:47;;;;;;;9.18;6.63;;;12.70;90.10;;;;;;5052470;28;20512;-35
2023/10/19 02:46:48;;;;;;;9.25;6.85;;;12.70;90.10;;;;;;5052631;28;20448;-35
2023/10/19 02:49:18;;;;;;;8.23;6.38;;;12.70;90.10;;;;;;5052744;28;20636;-35
2023/10/19 02:51:44;;;;;;;8.15;6.65;;;12.80;90.10;;;;;;5052484;28;20486;-35
2023/10/19 02:54:18;;;;;;;8.35;6.80;;;12.80;90.20;;;;;;5052379;28;20021;-36
2023/10/19 02:56:47;;;;;;;8.10;7.20;;;12.80;90.20;;;;;;5052443;28;20505;-35
2023/10/19 02:59:15;;;;;;;8.15;6.93;;;12.90;90.20;;;;;;5052336;28;20021;-35
2023/10/19 03:01:44;;;;;;;7.78;6.50;;;12.90;90.20;;;;;;5051753;28;20029;-35
2023/10/19 03:04:12;;;;;;;7.75;6.90;;;12.90;90.20;;;;;;5052783;28;20100;-35
2023/10/19 03:06:38;;;;;;;8.32;6.97;;;12.90;90.20;;;;;;5052623;28;20416;-35
2023/10/19 03:09:12;;;;;;;8.57;7.20;;;12.90;90.30;;;;;;5052614;28;20019;-35
2023/10/19 03:11:42;;;;;;;8.27;7.20;;;12.90;90.30;;;;;;5052313;28;20074;-35
2023/10/19 03:14:11;;;;;;;8.55;6.93;;;12.90;90.30;;;;;;5052262;28;20017;-36
2023/10/19 03:16:38;;;;;;;11.35;7.60;;;12.90;90.30;;;;;;5052336;28;20139;-36
2023/10/19 03:19:04;;;;;;;7.72;6.88;;;12.90;90.30;;;;;;5052481;28;20036;-35
2023/10/19 03:21:34;;;;;;;7.90;6.50;;;12.90;90.40;;;;;;5052431;28;20466;-35
2023/10/19 03:24:23;;;;;;;8.70;6.72;;;13.00;90.40;;;;;;5052482;28;20119;-34
2023/10/19 03:26:48;;;;;;;8.30;6.72;;;13.00;90.40;;;;;;5051875;28;20100;-35
2023/10/19 03:29:15;;;;;;;8.35;6.68;;;13.00;90.40;;;;;;5052155;28;20102;-36
2023/10/19 03:31:43;;;;;;;7.82;6.57;;;13.00;90.40;;;;;;5052084;28;20033;-37
2023/10/19 03:34:18;;;;;;;8.55;6.30;;;13.00;90.40;;;;;;5052116;28;20036;-35
2023/10/19 03:36:43;;;;;;;9.63;6.75;;;13.00;90.40;;;;;;5052128;28;20021;-35
2023/10/19 03:39:13;;;;;;;9.43;6.70;;;13.00;90.40;;;;;;5052015;28;20499;-35
2023/10/19 03:41:44;;;;;;;7.82;6.45;;;13.00;90.40;;;;;;5052149;28;20389;-35
2023/10/19 03:44:23;;;;;;;7.35;6.03;;;13.00;90.50;;;;;;5051911;28;20021;-36
2023/10/19 03:47:03;;;;;;;6.90;5.78;;;13.00;90.50;;;;;;5052143;28;20025;-35
2023/10/19 03:49:36;;;;;;;6.50;5.40;;;13.10;90.60;;;;;;5052189;28;20021;-36
2023/10/19 03:54:39;;;;;;;7.22;5.72;;;13.10;90.60;;;;;;5052128;28;20036;-36
2023/10/19 03:57:10;;;;;;;6.60;5.40;;;13.10;90.60;;;;;;5051895;28;20033;-36
2023/10/19 03:59:37;;;;;;;6.25;5.57;;;13.20;90.60;;;;;;5052159;28;20526;-33
2023/10/19 04:02:10;;;;;;;7.72;6.00;;;13.20;90.60;;;;;;5052057;28;20021;-35
2023/10/19 04:04:36;;;;;;;8.13;6.20;;;13.20;90.60;;;;;;5052186;28;20025;-35
2023/10/19 04:07:10;;;;;;;6.57;5.65;;;13.20;90.60;;;;;;5052051;28;20021;-36
2023/10/19 04:09:48;;;;;;;6.07;5.10;;;13.20;90.60;;;;;;5052026;28;20025;-35
2023/10/19 04:12:17;;;;;;;8.27;5.75;;;13.20;90.70;;;;;;5053500;28;20481;-35
2023/10/19 04:14:42;;;;;;;9.00;5.57;;;13.20;90.70;;;;;;5055770;28;20028;-35
2023/10/19 04:17:12;;;;;;;8.13;5.88;;;13.20;90.70;;;;;;5054977;28;20465;-35
2023/10/19 04:19:37;;;;;;;7.72;5.53;;;13.20;90.70;;;;;;5055165;28;20025;-34
2023/10/19 04:22:04;;;;;;;6.57;5.75;;;13.20;90.80;;;;;;5054073;28;20044;-35
2023/10/19 04:24:32;;;;;;;5.93;4.80;;;13.20;90.80;;;;;;5055369;28;20041;-35
2023/10/19 04:26:59;;;;;;;6.18;4.30;;;13.20;90.80;;;;;;5055029;28;20025;-35
2023/10/19 04:29:27;;;;;;;7.43;4.60;;;13.30;90.80;;;;;;5055063;28;20044;-35
2023/10/19 04:31:56;;;;;;;5.63;4.65;;;13.30;90.80;;;;;;5055209;28;20029;-33
2023/10/19 04:34:22;;;;;;;6.93;4.15;;;13.30;90.80;;;;;;5055018;28;20021;-36
2023/10/19 04:36:48;;;;;;;4.80;3.75;;;13.30;90.80;;;;;;5055079;28;20051;-35
2023/10/19 04:39:14;;;;;;;116.60;9.40;;;13.30;90.90;;;;;;5055129;28;20039;-34
2023/10/19 04:41:40;;;;;;;9.23;6.40;;;13.40;90.90;;;;;;5054913;28;20453;-36
2023/10/19 04:44:08;;;;;;;8.35;5.05;;;13.40;90.90;;;;;;5055114;28;20017;-34
2023/10/19 04:46:34;;;;;;;12.38;6.20;;;13.40;90.90;;;;;;5054658;28;20021;-35
2023/10/19 04:48:59;;;;;;;6.47;5.30;;;13.40;90.90;;;;;;5055054;28;20029;-35
2023/10/19 04:51:25;;;;;;;6.95;4.18;;;13.50;90.90;;;;;;5054634;28;20458;-35
2023/10/19 04:53:51;;;;;;;9.85;6.13;;;13.50;91.00;;;;;;5054739;28;20025;-36
2023/10/19 04:56:16;;;;;;;6.28;4.88;;;13.50;91.00;;;;;;5054601;28;20020;-36
2023/10/19 04:58:42;;;;;;;6.93;4.75;;;13.50;91.00;;;;;;5054487;28;20032;-36
2023/10/19 05:01:07;;;;;;;5.22;4.07;;;13.50;91.00;;;;;;5054306;28;20067;-34
2023/10/19 05:03:34;;;;;;;11.07;6.50;;;13.50;91.00;;;;;;5054810;28;20079;-34
2023/10/19 05:06:00;;;;;;;7.68;5.00;;;13.50;91.00;;;;;;5054184;28;20182;-35
2023/10/19 05:08:27;;;;;;;6.75;4.78;;;13.50;91.00;;;;;;5054207;28;20091;-31
2023/10/19 05:10:58;;;;;;;6.45;5.00;;;13.40;91.00;;;;;;5054574;28;20021;-34
2023/10/19 05:13:25;;;;;;;6.35;4.85;;;13.40;91.10;;;;;;5054564;28;20108;-33
2023/10/19 05:15:53;;;;;;;6.05;5.10;;;13.30;91.10;;;;;;5054068;28;20033;-35
2023/10/19 05:18:19;;;;;;;6.28;5.03;;;13.30;91.10;;;;;;5053909;28;20025;-35
2023/10/19 05:20:45;;;;;;;6.28;5.10;;;13.20;91.20;;;;;;5054393;28;20032;-35
2023/10/19 05:23:13;;;;;;;5.70;5.00;;;13.20;91.20;;;;;;5053615;28;20017;-35
2023/10/19 05:25:39;;;;;;;6.60;4.85;;;13.10;91.30;;;;;;5054149;28;20021;-34
2023/10/19 05:28:05;;;;;;;6.25;4.85;;;13.10;91.30;;;;;;5054276;28;20029;-35
2023/10/19 05:30:32;;;;;;;6.32;4.70;;;13.10;91.30;;;;;;5053773;28;20045;-36
2023/10/19 05:32:58;;;;;;;7.00;5.22;;;13.00;91.40;;;;;;5052692;28;20032;-35
2023/10/19 05:35:26;;;;;;;7.15;5.03;;;13.00;91.40;;;;;;5053769;28;20024;-35
2023/10/19 05:37:52;;;;;;;6.25;4.90;;;12.90;91.40;;;;;;5053891;28;20033;-35
2023/10/19 05:40:19;;;;;;;6.43;4.78;;;12.90;91.40;;;;;;5053775;28;20053;-33
2023/10/19 05:42:46;;;;;;;7.78;5.15;;;12.90;91.40;;;;;;5054089;28;20018;-34
2023/10/19 05:45:13;;;;;;;7.15;4.97;;;12.90;91.40;;;;;;5053989;28;20029;-36
2023/10/19 05:47:38;;;;;;;6.90;5.43;;;13.00;91.40;;;;;;5053444;28;20059;-34
2023/10/19 05:50:04;;;;;;;6.05;5.40;;;13.00;91.40;;;;;;5053923;28;20072;-35
2023/10/19 05:52:30;;;;;;;8.20;5.05;;;13.00;91.40;;;;;;5052259;28;20032;-36
2023/10/19 05:54:57;;;;;;;5.47;4.88;;;13.00;91.40;;;;;;5053620;28;20115;-36
2023/10/19 05:57:24;;;;;;;5.60;4.93;;;13.00;91.40;;;;;;5053143;28;20022;-36
2023/10/19 05:59:49;;;;;;;6.35;5.10;;;13.00;91.40;;;;;;5053311;28;20041;-35
2023/10/19 06:02:15;;;;;;;6.07;4.75;;;13.10;91.40;;;;;;5053487;28;20048;-36
2023/10/19 06:04:41;;;;;;;5.53;4.93;;;13.10;91.40;;;;;;5053236;28;20024;-35
2023/10/19 06:07:06;;;;;;;6.15;4.93;;;13.10;91.40;;;;;;5052876;28;20100;-35
2023/10/19 06:09:32;;;;;;;5.72;4.93;;;13.10;91.40;;;;;;5053129;28;20032;-35
2023/10/19 06:11:57;;;;;;;6.82;5.15;;;13.20;91.40;;;;;;5053195;28;20130;-33
2023/10/19 06:14:23;;;;;;;6.88;4.82;;;13.20;91.40;;;;;;5052756;28;20021;-35
2023/10/19 06:16:49;;;;;;;5.38;4.32;;;13.20;91.40;;;;;;5052662;28;20057;-35
2023/10/19 06:19:16;;;;;;;5.82;4.78;;;13.20;91.60;;;;;;5052783;28;20115;-35
2023/10/19 06:21:41;;;;;;;5.53;4.65;;;13.30;91.40;;;;;;5052887;28;20063;-35
2023/10/19 06:24:07;;;;;;;6.82;5.05;;;13.30;91.40;;;;;;5053099;28;20021;-34
2023/10/19 06:26:33;;;;;;;5.80;4.72;;;13.30;91.40;;;;;;5052640;28;20033;-33
2023/10/19 06:28:59;;;;;;;7.05;5.05;;;13.40;91.40;;;;;;5052511;28;20039;-35
2023/10/19 06:31:25;;;;;;;6.35;5.07;;;13.30;91.40;;;;;;5052665;28;20031;-36
2023/10/19 06:33:52;;;;;;;7.25;5.30;;;13.40;91.40;;;;;;5052685;28;20418;-36
2023/10/19 06:36:18;;;;;;;8.75;6.05;;;13.40;91.40;;;;;;5052209;28;20024;-35
2023/10/19 06:38:44;;;;;;;11.02;6.75;;;13.40;91.40;;;;;;5052329;28;20028;-35
2023/10/19 06:41:14;;;;;;;7.50;5.93;;;13.50;91.40;;;;;;5052516;28;20074;-35
2023/10/19 06:43:40;;;;;;;7.63;5.32;;;13.50;91.40;;;;;;5051020;28;20028;-36
2023/10/19 06:46:06;;;;;;;8.68;5.60;;;13.50;91.40;;;;;;5052008;28;20036;-35
2023/10/19 06:48:32;;;;;;;9.00;5.22;;;13.50;91.40;;;;;;5052038;28;20027;-36
2023/10/19 06:50:58;;;;;;;6.43;4.93;;;13.50;91.40;;;;;;5051839;28;20397;-36
2023/10/19 06:53:23;;;;;;;5.40;4.53;;;13.50;91.40;;;;;;5051583;28;20032;-38
2023/10/19 06:55:49;;;;;;;14.30;5.10;;;13.50;91.40;;;;;;5051643;28;20025;-35
2023/10/19 06:58:15;;;;;;;6.60;4.90;;;13.60;91.50;;;;;;5051588;28;20033;-36
2023/10/19 07:00:43;;;;;;;5.20;4.32;;;13.60;91.50;;;;;;5050253;28;20477;-36
2023/10/19 07:03:09;;;;;;;6.78;4.68;;;13.60;91.40;;;;;;5051681;28;20021;-33
2023/10/19 07:05:34;;;;;;;6.93;4.55;;;13.70;91.50;;;;;;5051524;28;20028;-35
2023/10/19 07:08:01;;;;;;;5.75;4.47;;;13.70;91.40;;;;;;5051503;28;20033;-35
2023/10/19 07:10:27;;;;;;;5.97;4.00;;;13.70;91.40;;;;;;5051374;28;20035;-35
2023/10/19 07:12:54;;;;;;;10.68;6.10;;;13.70;91.40;;;;;;5051561;28;20032;-40
2023/10/19 07:15:22;;;;;;;9.05;4.97;;;13.70;91.40;;;;;;5051479;28;20032;-35
2023/10/19 07:17:50;;;;;;;7.22;4.65;;;13.80;91.50;;;;;;5051357;28;20050;-34
2023/10/19 07:20:26;;;;;;;12.50;5.45;;;13.80;91.40;;;;;;5051145;28;20489;-34
2023/10/19 07:22:53;;;;;;;7.38;5.07;;;13.90;91.40;;;;;;5051293;28;20492;-36
2023/10/19 07:25:21;;;;;;;7.38;4.90;;;14.00;91.40;;;;;;5051401;28;20385;-35
2023/10/19 07:27:48;;;;;;;7.57;4.50;;;14.00;91.40;;;;;;5051236;28;20076;-35
2023/10/19 07:30:15;;;;;;;9.32;4.40;;;14.00;91.40;;;;;;5051308;28;20124;-36
2023/10/19 07:32:41;;;;;;;7.07;3.80;;;14.00;91.40;;;;;;5051347;28;20501;-35
2023/10/19 07:35:06;;;;;;;9.20;3.63;;;14.10;91.40;;;;;;5051195;28;20025;-36
2023/10/19 07:37:32;;;;;;;6.40;3.72;;;14.10;91.40;;;;;;5051024;28;20036;-36
2023/10/19 07:39:58;;;;;;;7.15;3.67;;;14.20;91.40;;;;;;5051301;28;20066;-35
2023/10/19 07:42:25;;;;;;;5.63;3.65;;;14.20;91.40;;;;;;5051200;28;20469;-36
2023/10/19 07:44:52;;;;;;;5.03;3.35;;;14.20;91.40;;;;;;5051447;28;20068;-36
2023/10/19 07:47:17;;;;;;;4.20;2.88;;;14.30;91.40;;;;;;5052716;28;20052;-36
2023/10/19 07:49:43;;;;;;;5.68;3.20;;;14.30;91.40;;;;;;5055149;28;20476;-35
2023/10/19 07:52:10;;;;;;;4.93;2.90;;;14.30;91.40;;;;;;5055109;28;20028;-34
2023/10/19 07:54:37;;;;;;;4.93;3.10;;;14.30;91.40;;;;;;5055059;28;20048;-36
2023/10/19 07:57:05;;;;;;;5.18;2.70;;;14.40;91.40;;;;;;5054758;28;20021;-35
2023/10/19 07:59:32;;;;;;;5.22;2.97;;;14.40;91.40;;;;;;5054853;28;20017;-37
2023/10/19 08:01:57;;;;;;;6.35;2.75;;;14.40;91.40;;;;;;5055142;28;20025;-36
2023/10/19 08:04:25;;;;;;;8.52;2.45;;;14.50;91.50;;;;;;5055665;28;20120;-37
2023/10/19 08:06:50;;;;;;;6.05;2.60;;;14.50;91.50;;;;;;5054183;28;20453;-37
2023/10/19 08:09:22;;;;;;;6.05;2.50;;;14.50;91.40;;;;;;5055395;28;20032;-35
2023/10/19 08:11:48;;;;;;;6.43;2.40;;;14.50;91.40;;;;;;5055672;28;20017;-34
2023/10/19 08:14:14;;;;;;;3.85;1.95;;;14.60;91.40;;;;;;5055541;28;20033;-36
2023/10/19 08:16:41;;;;;;;6.63;1.90;;;14.60;91.40;;;;;;5055141;28;20036;-34
2023/10/19 08:19:07;;;;;;;6.20;2.20;;;14.70;91.40;;;;;;5055183;28;20032;-34
2023/10/19 08:21:34;;;;;;;8.75;2.03;;;14.70;91.40;;;;;;5055154;28;20025;-36
2023/10/19 08:24:04;;;;;;;7.75;1.98;;;14.80;91.40;;;;;;5055160;28;20418;-36
2023/10/19 08:26:30;;;;;;;5.88;1.70;;;14.80;91.40;;;;;;5055219;28;20017;-37
2023/10/19 08:28:57;;;;;;;3.15;1.65;;;14.80;91.40;;;;;;5054994;28;20052;-35
2023/10/19 08:31:24;;;;;;;9.02;1.75;;;14.90;91.40;;;;;;5054981;28;20029;-36
2023/10/19 08:33:50;;;;;;;5.88;2.40;;;14.90;91.40;;;;;;5054983;28;20040;-36
2023/10/19 08:36:19;;;;;;;9.48;2.20;;;15.00;91.40;;;;;;5055253;28;20408;-34
2023/10/19 08:38:46;;;;;;;7.63;2.42;;;15.00;91.40;;;;;;5054936;28;20437;-35
2023/10/19 08:41:13;;;;;;;5.15;1.52;;;15.00;91.40;;;;;;5054732;28;20060;-36
2023/10/19 08:43:39;;;;;;;3.35;1.58;;;15.10;91.40;;;;;;5055090;28;20413;-35
2023/10/19 08:46:06;;;;;;;5.00;1.55;;;15.10;91.40;;;;;;5054648;28;20029;-35
2023/10/19 08:48:37;;;;;;;6.03;1.70;;;15.10;91.40;;;;;;5054931;28;20381;-36
2023/10/19 08:51:10;;;;;;;5.20;1.75;;;15.10;91.30;;;;;;5054819;28;20029;-36
2023/10/19 08:53:44;;;;;;;4.25;2.10;;;15.20;91.40;;;;;;5054550;28;20036;-36
2023/10/19 08:56:11;;;;;;;3.80;1.75;;;15.20;91.30;;;;;;5054788;28;20029;-36
2023/10/19 08:58:37;;;;;;;5.47;1.67;;;15.20;91.30;;;;;;5053096;28;20082;-34
2023/10/19 09:01:06;;;;;;;3.38;1.40;;;15.30;91.30;;;;;;5054555;28;20021;-36
2023/10/19 09:03:32;;;;;;;4.85;1.70;;;15.30;91.30;;;;;;5054972;28;20162;-36
2023/10/19 09:06:05;;;;;;;5.03;1.60;;;15.40;91.30;;;;;;5054784;28;20025;-36
2023/10/19 09:08:40;;;;;;;3.63;1.40;;;15.50;91.30;;;;;;5054575;28;20032;-35
2023/10/19 09:11:11;;;;;;;7.07;1.70;;;15.60;91.20;;;;;;5054609;28;20040;-36
2023/10/19 09:13:51;;;;;;;5.65;1.65;;;15.60;91.20;;;;;;5054476;28;20036;-34
2023/10/19 09:16:19;;;;;;;4.22;1.40;;;15.70;91.20;;;;;;5054547;28;20108;-37
2023/10/19 09:18:49;;;;;;;6.70;1.77;;;15.70;91.10;;;;;;5054004;28;20036;-35
2023/10/19 09:21:25;;;;;;;3.15;1.65;;;15.80;91.10;;;;;;5054596;28;20104;-36
2023/10/19 09:23:52;;;;;;;8.05;1.85;;;15.80;91.10;;;;;;5054541;28;20062;-35
2023/10/19 09:26:18;;;;;;;6.45;1.90;;;15.80;91.10;;;;;;5054261;28;20017;-35
2023/10/19 09:28:50;;;;;;;5.07;2.00;;;15.80;91.10;;;;;;5054147;28;20043;-36
2023/10/19 09:31:16;;;;;;;3.58;2.10;;;15.90;91.10;;;;;;5054285;28;20025;-33
2023/10/19 09:33:47;;;;;;;4.68;2.20;;;15.90;91.00;;;;;;5054182;28;20033;-37
2023/10/19 09:36:13;;;;;;;7.82;2.50;;;15.90;91.00;;;;;;5053715;28;20025;-37
2023/10/19 09:38:51;;;;;;;4.53;2.58;;;15.90;91.10;;;;;;5054128;28;20028;-35
2023/10/19 09:41:21;;;;;;;7.15;2.33;;;15.90;91.00;;;;;;5054060;28;20021;-36
2023/10/19 09:43:50;;;;;;;5.68;2.20;;;16.00;91.20;;;;;;5053793;28;20025;-36
2023/10/19 09:46:39;;;;;;;4.53;2.03;;;16.00;90.90;;;;;;5053809;28;20083;-37
2023/10/19 09:49:06;;;;;;;6.00;2.17;;;16.10;90.90;;;;;;5053676;28;20036;-37
2023/10/19 09:51:33;;;;;;;7.65;2.40;;;16.10;90.80;;;;;;5053413;28;20036;-37
2023/10/19 09:54:05;;;;;;;4.82;2.35;;;16.20;90.70;;;;;;5053603;28;20025;-37
2023/10/19 09:56:44;;;;;;;6.90;2.45;;;16.20;90.70;;;;;;5053377;28;20068;-35
2023/10/19 09:59:27;;;;;;;6.70;2.50;;;16.30;90.50;;;;;;5053404;28;20424;-36
2023/10/19 10:02:07;;;;;;;2.92;2.00;;;16.40;90.50;;;;;;5053495;28;20119;-37
2023/10/19 10:04:36;;;;;;;4.20;2.13;;;16.50;90.70;;;;;;5053419;28;20075;-37
2023/10/19 10:07:06;;;;;;;4.28;2.35;;;16.60;90.30;;;;;;5053348;28;20036;-35
2023/10/19 10:09:34;;;;;;;4.30;2.00;;;16.70;90.10;;;;;;5052895;28;20020;-36
2023/10/19 10:12:21;;;;;;;5.10;2.28;;;16.70;90.10;;;;;;5053139;28;20101;-36
2023/10/19 10:15:01;;;;;;;6.50;2.10;;;16.80;90.20;;;;;;5053131;28;20361;-37
2023/10/19 10:17:27;;;;;;;5.45;2.00;;;16.90;90.10;;;;;;5052945;28;20159;-35
2023/10/19 10:20:19;;;;;;;5.32;2.25;;;17.00;90.20;;;;;;5053001;28;20557;-36
2023/10/19 10:23:05;;;;;;;3.60;1.80;;;17.00;90.10;;;;;;5050444;28;20397;-36
2023/10/19 10:25:31;;;;;;;4.70;2.00;;;17.20;90.10;;;;;;5052990;28;20039;-35
2023/10/19 10:27:58;;;;;;;5.72;1.80;;;17.30;90.10;;;;;;5052959;28;20067;-34
2023/10/19 10:30:23;;;;;;;4.07;1.65;;;17.30;90.10;;;;;;5052638;28;20049;-36
2023/10/19 10:32:56;;;;;;;6.00;1.90;;;17.30;90.00;;;;;;5052723;28;20029;-36
2023/10/19 10:35:36;;;;;;;5.15;1.92;;;17.40;90.00;;;;;;5052803;28;20033;-35
2023/10/19 10:38:06;;;;;;;7.25;2.10;;;17.40;90.00;;;;;;5052497;28;20036;-36
2023/10/19 10:40:48;;;;;;;6.90;1.67;;;17.40;90.00;;;;;;5052689;28;20029;-36
2023/10/19 10:43:15;;;;;;;7.00;2.30;;;17.40;90.00;;;;;;5052685;28;20092;-36
2023/10/19 10:45:41;;;;;;;7.15;2.15;;;17.40;90.00;;;;;;5052455;28;20489;-36
2023/10/19 10:48:17;;;;;;;3.22;1.88;;;17.40;90.00;;;;;;5052741;28;20052;-35
2023/10/19 10:50:45;;;;;;;6.53;1.88;;;17.40;90.00;;;;;;5052962;28;20492;-37
2023/10/19 10:53:12;;;;;;;5.10;2.30;;;17.50;90.00;;;;;;5052516;28;20021;-36
2023/10/19 10:55:39;;;;;;;3.53;1.80;;;17.50;89.90;;;;;;5052514;28;20377;-37
2023/10/19 10:58:05;;;;;;;5.28;2.15;;;17.50;89.50;;;;;;5052440;28;20107;-36
2023/10/19 11:00:33;;;;;;;7.03;2.17;;;17.60;89.00;;;;;;5051988;28;20151;-33
2023/10/19 11:03:09;;;;;;;6.32;1.98;;;17.60;89.00;;;;;;5052174;28;20108;-34
2023/10/19 11:05:36;;;;;;;5.57;2.08;;;17.60;89.00;;;;;;5052524;28;20064;-36
2023/10/19 11:08:13;;;;;;;6.15;1.80;;;17.60;89.00;;;;;;5052491;28;20056;-34
2023/10/19 11:10:42;;;;;;;6.60;1.92;;;17.60;89.00;;;;;;5052433;28;20039;-34
2023/10/19 11:13:09;;;;;;;4.78;1.92;;;17.70;89.00;;;;;;5052392;28;20028;-35
2023/10/19 11:15:39;;;;;;;5.18;2.15;;;17.70;88.60;;;;;;5052429;28;20071;-36
2023/10/19 11:18:09;;;;;;;4.57;1.98;;;17.80;88.60;;;;;;5052207;28;20037;-36
2023/10/19 11:20:35;;;;;;;5.25;1.98;;;17.70;88.10;;;;;;5052169;28;20032;-36
2023/10/19 11:23:01;;;;;;;4.53;1.88;;;17.70;87.90;;;;;;5055206;28;20025;-36
2023/10/19 11:25:28;;;;;;;6.53;1.83;;;17.70;87.70;;;;;;5056264;28;20017;-35
2023/10/19 11:27:57;;;;;;;5.25;1.92;;;17.80;87.70;;;;;;5056360;28;20075;-37
2023/10/19 11:30:33;;;;;;;6.82;1.85;;;17.80;87.80;;;;;;5056006;28;20084;-36
2023/10/19 11:33:01;;;;;;;6.15;2.10;;;18.00;87.90;;;;;;5056447;28;20041;-36
2023/10/19 11:35:30;;;;;;;5.93;1.63;;;18.10;86.80;;;;;;5056293;28;20585;-36
2023/10/19 11:38:00;;;;;;;5.05;1.90;;;18.20;86.10;;;;;;5056077;28;20048;-36
2023/10/19 11:40:27;;;;;;;4.82;1.75;;;18.30;86.10;;;;;;5056054;28;20059;-36
2023/10/19 11:43:00;;;;;;;6.25;2.03;;;18.20;86.10;;;;;;5055824;28;20025;-35
2023/10/19 11:45:26;;;;;;;7.05;2.28;;;18.30;86.10;;;;;;5055744;28;20353;-35
2023/10/19 11:47:53;;;;;;;4.57;2.08;;;18.30;86.10;;;;;;5055860;28;20039;-34
2023/10/19 11:50:19;;;;;;;3.90;1.98;;;18.30;86.00;;;;;;5055702;28;20120;-36
2023/10/19 11:52:45;;;;;;;4.90;2.00;;;18.30;86.30;;;;;;5056135;28;20051;-35
2023/10/19 11:55:16;;;;;;;4.03;1.98;;;18.40;86.30;;;;;;5055525;28;20112;-34
2023/10/19 11:57:44;;;;;;;4.95;1.98;;;18.50;86.30;;;;;;5055582;28;20064;-34
2023/10/19 12:00:23;;;;;;;5.95;1.90;;;18.60;86.20;;;;;;5055874;28;20025;-34
2023/10/19 12:02:49;;;;;;;6.35;1.90;;;18.60;86.20;;;;;;5055564;28;20036;-37
2023/10/19 12:05:15;;;;;;;4.25;1.75;;;18.60;86.20;;;;;;5055856;28;20033;-35
2023/10/19 12:07:41;;;;;;;2.97;1.70;;;18.60;86.40;;;;;;5055737;28;20028;-35
2023/10/19 12:10:08;;;;;;;7.63;1.98;;;18.70;86.30;;;;;;5055916;28;20033;-36
2023/10/19 12:12:34;;;;;;;5.20;2.10;;;18.80;86.30;;;;;;5055815;28;20063;-36
2023/10/19 12:15:00;;;;;;;6.35;2.00;;;18.80;86.10;;;;;;5055409;28;20032;-34
2023/10/19 12:17:27;;;;;;;5.80;2.22;;;18.80;86.10;;;;;;5055175;28;20029;-34
2023/10/19 12:19:54;;;;;;;3.97;1.98;;;18.80;86.10;;;;;;5055111;28;20082;-35
2023/10/19 12:22:21;;;;;;;4.53;2.40;;;18.80;86.30;;;;;;5055646;28;20029;-36
2023/10/19 12:24:47;;;;;;;4.60;1.85;;;18.70;86.30;;;;;;5055590;28;20025;-36
2023/10/19 12:27:13;;;;;;;5.55;2.53;;;18.70;86.50;;;;;;5053875;28;20048;-35
2023/10/19 12:29:39;;;;;;;6.00;2.17;;;18.60;86.60;;;;;;5054966;28;20041;-34
2023/10/19 12:32:06;;;;;;;5.47;2.17;;;18.50;86.70;;;;;;5055406;28;20041;-35
2023/10/19 12:34:31;;;;;;;4.68;2.30;;;18.50;86.80;;;;;;5054794;28;20036;-35
2023/10/19 12:37:02;;;;;;;4.30;2.42;;;18.40;86.80;;;;;;5055154;28;20032;-35
2023/10/19 12:39:44;;;;;;;6.53;2.38;;;18.40;87.00;;;;;;5055322;28;20476;-35
2023/10/19 12:42:10;;;;;;;4.90;2.08;;;18.30;87.10;;;;;;5055053;28;20053;-34
2023/10/19 12:44:39;;;;;;;5.60;2.40;;;18.30;87.20;;;;;;5055046;28;20078;-36
2023/10/19 12:47:10;;;;;;;6.43;2.25;;;18.30;87.20;;;;;;5054846;28;20025;-36
2023/10/19 12:49:36;;;;;;;5.57;2.40;;;18.40;87.20;;;;;;5054648;28;20029;-35
2023/10/19 12:52:07;;;;;;;5.30;2.08;;;18.40;87.20;;;;;;5054774;28;20064;-34
2023/10/19 12:54:37;;;;;;;5.20;2.38;;;18.30;87.20;;;;;;5054614;28;20436;-34
2023/10/19 12:57:12;;;;;;;4.47;2.55;;;18.30;87.20;;;;;;5054604;28;20029;-35
2023/10/19 12:59:38;;;;;;;6.72;2.35;;;18.30;87.20;;;;;;5054757;28;20199;-34
2023/10/19 13:02:07;;;;;;;6.72;2.50;;;18.20;87.30;;;;;;5054590;28;20463;-36
2023/10/19 13:04:34;;;;;;;4.45;2.40;;;18.10;87.30;;;;;;5054414;28;20508;-35
2023/10/19 13:06:59;;;;;;;7.80;2.40;;;18.10;87.50;;;;;;5054279;28;20025;-34
2023/10/19 13:09:36;;;;;;;8.52;2.60;;;18.10;87.50;;;;;;5054286;28;20033;-35
2023/10/19 13:12:01;;;;;;;5.13;2.67;;;18.10;87.60;;;;;;5054314;28;20036;-36